Time;durP1;ratioP1;P1;durP2;ratioP2;P2;SDS_P1;SDS_P2;PMS_P1;PMS_P2;Temp;Humidity;BMP_temperature;BMP_pressure;BME280_temperature;BME280_humidity;BME280_pressure;Samples;Min_cycle;Max_cycle;Signal;HPM_P1;HPM_P2
2023/11/14 00:00:04;;;;;;;22.55;6.80;;;;;;;19.30;79.00;100001.34;5050594;28;20596;-34
2023/11/14 00:02:29;;;;;;;24.10;5.95;;;;;;;19.28;78.94;99987.09;5033430;28;20091;-33
2023/11/14 00:04:55;;;;;;;21.08;6.30;;;;;;;19.28;79.18;99989.06;5032624;28;20025;-35
2023/11/14 00:07:20;;;;;;;23.88;6.07;;;;;;;19.27;79.47;100003.91;5052267;28;20032;-33
2023/11/14 00:09:47;;;;;;;21.45;5.82;;;;;;;19.26;79.50;99974.78;5063720;28;20531;-33
2023/11/14 00:12:13;;;;;;;25.50;6.45;;;;;;;19.24;79.52;99994.34;5059990;28;20081;-34
2023/11/14 00:14:42;;;;;;;21.92;5.85;;;;;;;19.23;79.70;99990.75;5054585;28;20028;-34
2023/11/14 00:17:08;;;;;;;22.13;5.43;;;;;;;19.23;79.59;99998.19;5054065;28;20025;-34
2023/11/14 00:19:34;;;;;;;22.48;5.80;;;;;;;19.24;79.59;100008.06;5059153;28;20396;-34
2023/11/14 00:21:59;;;;;;;25.40;6.32;;;;;;;19.24;79.86;100013.56;5055323;28;20055;-35
2023/11/14 00:24:24;;;;;;;25.27;5.97;;;;;;;19.23;79.65;100025.66;5035184;28;20116;-34
2023/11/14 00:26:50;;;;;;;25.58;6.60;;;;;;;19.21;79.70;100016.91;5050655;28;20037;-34
2023/11/14 00:29:15;;;;;;;21.20;5.72;;;;;;;19.21;80.30;100016.91;5058546;28;20486;-32
2023/11/14 00:31:40;;;;;;;21.58;6.40;;;;;;;19.19;80.07;100017.22;5059545;28;20044;-33
2023/11/14 00:34:06;;;;;;;26.67;5.82;;;;;;;19.19;80.00;100005.41;5060174;28;20028;-33
2023/11/14 00:36:31;;;;;;;28.40;6.30;;;;;;;19.18;79.83;100017.53;5056287;28;20505;-34
2023/11/14 00:38:59;;;;;;;23.55;5.90;;;;;;;19.19;79.98;100028.22;5044708;28;20069;-33
2023/11/14 00:41:27;;;;;;;24.35;6.15;;;;;;;19.18;80.19;100021.09;5049080;28;20186;-33
2023/11/14 00:43:52;;;;;;;27.80;6.00;;;;;;;19.19;79.96;100019.97;5067365;28;20073;-34
2023/11/14 00:46:18;;;;;;;29.50;5.85;;;;;;;19.20;79.98;100021.59;5052025;28;20094;-35
2023/11/14 00:48:46;;;;;;;23.92;6.25;;;;;;;19.19;80.17;100035.63;5048402;28;20705;-34
2023/11/14 00:51:11;;;;;;;22.52;6.15;;;;;;;19.20;80.03;100037.25;5052620;28;20480;-35
2023/11/14 00:53:36;;;;;;;20.52;5.47;;;;;;;19.19;80.26;100027.38;5046654;28;20040;-34
2023/11/14 00:56:02;;;;;;;22.55;5.78;;;;;;;19.19;80.37;100030.97;5055996;28;20040;-35
2023/11/14 00:58:28;;;;;;;25.10;6.15;;;;;;;19.19;80.32;100036.44;5052718;28;20489;-34
2023/11/14 01:00:53;;;;;;;25.85;5.88;;;;;;;19.17;80.15;100038.69;5035060;28;20053;-34
2023/11/14 01:03:21;;;;;;;25.33;6.90;;;;;;;19.18;80.21;100017.53;5051215;28;20032;-34
2023/11/14 01:05:46;;;;;;;29.10;5.80;;;;;;;19.17;79.97;100049.66;5049094;28;20040;-34
2023/11/14 01:08:12;;;;;;;27.05;6.05;;;;;;;19.17;79.97;100048.88;5059843;28;20420;-34
2023/11/14 01:10:38;;;;;;;20.70;4.85;;;;;;;19.15;nan;100045.59;5063681;28;20032;-34
2023/11/14 01:13:03;;;;;;;20.70;5.63;;;;;;;19.12;80.52;100051.72;5060230;28;20020;-34
2023/11/14 01:15:29;;;;;;;20.42;5.35;;;;;;;19.11;80.32;100045.38;5055497;28;20062;-33
2023/11/14 01:17:54;;;;;;;22.85;4.90;;;;;;;19.12;80.50;100052.50;5049695;28;20566;-34
2023/11/14 01:20:20;;;;;;;24.75;5.50;;;;;;;19.12;80.32;100054.47;5052452;28;20083;-34
2023/11/14 01:22:45;;;;;;;21.88;5.18;;;;;;;19.12;80.63;100069.00;5056570;28;20372;-34
2023/11/14 01:25:11;;;;;;;20.08;5.47;;;;;;;19.11;80.40;100075.59;5050238;28;20112;-34
2023/11/14 01:27:37;;;;;;;24.23;5.90;;;;;;;19.11;80.76;100067.34;5036931;28;20413;-34
2023/11/14 01:30:02;;;;;;;23.42;5.28;;;;;;;19.11;80.70;100050.06;5062733;28;20082;-35
2023/11/14 01:32:28;;;;;;;28.58;5.95;;;;;;;19.10;80.29;100059.44;5055874;28;20493;-34
2023/11/14 01:34:53;;;;;;;25.15;5.45;;;;;;;19.11;80.46;100074.78;5058117;28;20478;-35
2023/11/14 01:37:19;;;;;;;21.35;5.20;;;;;;;19.10;80.64;100062.19;5058882;28;20266;-35
2023/11/14 01:39:45;;;;;;;21.33;5.30;;;;;;;19.10;80.50;100068.47;5052937;28;20024;-33
2023/11/14 01:42:10;;;;;;;21.92;6.00;;;;;;;19.10;80.65;100059.44;5045880;28;20110;-35
2023/11/14 01:44:36;;;;;;;21.35;5.45;;;;;;;19.10;80.49;100064.91;5046531;28;20116;-35
2023/11/14 01:47:01;;;;;;;24.85;5.47;;;;;;;19.10;80.66;100075.91;5049785;28;20017;-34
2023/11/14 01:49:28;;;;;;;19.42;4.70;;;;;;;19.08;80.75;100073.47;5045031;28;20159;-34
2023/11/14 01:51:53;;;;;;;21.90;5.53;;;;;;;19.08;80.92;100098.19;5027833;28;20521;-34
2023/11/14 01:54:19;;;;;;;24.33;5.55;;;;;;;19.08;80.64;100103.69;5041843;28;20020;-34
2023/11/14 01:56:44;;;;;;;18.98;4.80;;;;;;;19.06;80.87;100109.47;5038586;28;20458;-35
2023/11/14 01:59:10;;;;;;;26.40;6.20;;;;;;;19.07;80.67;100105.59;5052214;28;20094;-34
2023/11/14 02:01:35;;;;;;;25.80;6.00;;;;;;;19.06;80.97;100112.19;5044740;28;20657;-33
2023/11/14 02:04:03;;;;;;;24.65;6.00;;;;;;;19.06;81.01;100116.91;5047443;28;20111;-34
2023/11/14 02:06:30;;;;;;;25.23;5.32;;;;;;;19.05;80.94;100107.03;5037274;28;20024;-33
2023/11/14 02:08:55;;;;;;;21.98;5.45;;;;;;;19.06;80.81;100094.91;5052525;28;20036;-34
2023/11/14 02:11:21;;;;;;;19.85;4.80;;;;;;;19.06;80.64;100103.16;5051582;28;20555;-34
2023/11/14 02:13:46;;;;;;;21.83;5.22;;;;;;;19.06;81.04;100116.91;5036281;28;20078;-34
2023/11/14 02:16:12;;;;;;;22.10;5.70;;;;;;;19.03;80.97;100125.72;5045154;28;20052;-34
2023/11/14 02:18:37;;;;;;;22.08;5.82;;;;;;;19.03;80.86;100136.72;5043884;28;20059;-34
2023/11/14 02:21:03;;;;;;;24.85;6.65;;;;;;;19.02;80.94;100127.66;5044430;28;20687;-34
2023/11/14 02:23:29;;;;;;;17.50;5.05;;;;;;;19.02;81.29;100126.88;5034142;28;20044;-33
2023/11/14 02:25:54;;;;;;;24.58;5.90;;;;;;;19.02;81.27;100121.38;5082383;28;20021;-34
2023/11/14 02:28:20;;;;;;;21.63;5.53;;;;;;;19.03;81.22;100131.22;5047226;28;20071;-36
2023/11/14 02:30:46;;;;;;;24.20;5.80;;;;;;;19.00;81.15;100140.88;5047317;28;20317;-34
2023/11/14 02:33:11;;;;;;;22.27;5.50;;;;;;;19.01;81.27;100142.50;5055233;28;20486;-33
2023/11/14 02:35:37;;;;;;;19.08;4.97;;;;;;;19.01;81.40;100142.50;5048636;28;20128;-34
2023/11/14 02:38:03;;;;;;;24.85;5.78;;;;;;;19.02;81.13;100149.63;5055037;28;20104;-36
2023/11/14 02:40:28;;;;;;;24.05;6.85;;;;;;;19.01;81.33;100137.00;5052214;28;20060;-33
2023/11/14 02:42:54;;;;;;;25.48;5.95;;;;;;;19.01;81.31;100149.94;5043815;28;20109;-33
2023/11/14 02:45:25;;;;;;;22.80;5.55;;;;;;;18.99;81.13;100149.41;5036395;28;20120;-33
2023/11/14 02:47:50;;;;;;;21.40;6.35;;;;;;;18.99;81.46;100152.16;5043275;28;20037;-35
2023/11/14 02:50:29;;;;;;;20.95;5.65;;;;;;;18.99;81.37;100146.66;5051002;28;20025;-32
2023/11/14 02:52:55;;;;;;;26.88;5.88;;;;;;;18.99;81.58;100154.91;5040272;28;20112;-32
2023/11/14 02:55:20;;;;;;;27.50;6.38;;;;;;;18.99;81.38;100160.41;5046954;28;20040;-32
2023/11/14 02:57:46;;;;;;;23.75;5.65;;;;;;;18.98;81.38;100154.09;5060217;28;20043;-33
2023/11/14 03:00:15;;;;;;;24.30;5.50;;;;;;;18.98;81.54;100164.25;5046684;28;20021;-32
2023/11/14 03:02:42;;;;;;;22.02;5.28;;;;;;;18.98;81.64;100161.50;5030097;28;20038;-33
2023/11/14 03:05:07;;;;;;;20.17;4.95;;;;;;;18.98;81.47;100161.50;5032119;28;20076;-33
2023/11/14 03:07:34;;;;;;;23.55;5.85;;;;;;;18.97;81.62;100168.13;5042308;28;20440;-32
2023/11/14 03:10:00;;;;;;;22.23;5.47;;;;;;;18.97;81.82;100166.19;5060807;28;20485;-32
2023/11/14 03:12:25;;;;;;;22.25;5.00;;;;;;;18.97;81.74;100157.13;5057423;28;20036;-32
2023/11/14 03:14:51;;;;;;;21.08;5.13;;;;;;;18.97;81.50;100170.84;5056497;28;20166;-34
2023/11/14 03:17:17;;;;;;;23.10;5.78;;;;;;;18.97;81.87;100168.13;5050493;28;20031;-32
2023/11/14 03:19:42;;;;;;;22.05;5.70;;;;;;;18.96;81.58;100161.81;5058051;28;20051;-33
2023/11/14 03:22:08;;;;;;;22.25;5.75;;;;;;;18.96;82.03;100166.47;5043679;28;20032;-33
2023/11/14 03:24:33;;;;;;;24.20;6.20;;;;;;;18.96;81.93;100167.31;5051945;28;20065;-33
2023/11/14 03:26:59;;;;;;;24.35;5.72;;;;;;;18.95;81.94;100171.16;5046092;28;20024;-32
2023/11/14 03:29:24;;;;;;;21.98;5.22;;;;;;;18.95;81.72;100179.41;5026709;28;20017;-33
2023/11/14 03:31:50;;;;;;;25.35;5.68;;;;;;;18.94;81.79;100179.72;5045965;28;20116;-34
2023/11/14 03:34:15;;;;;;;31.92;6.07;;;;;;;18.94;81.90;100197.00;5046938;28;20511;-32
2023/11/14 03:36:40;;;;;;;24.05;5.65;;;;;;;18.94;81.92;100185.19;5025792;28;20071;-34
2023/11/14 03:39:06;;;;;;;28.05;6.13;;;;;;;18.93;81.84;100184.38;5035424;28;20509;-34
2023/11/14 03:41:31;;;;;;;30.30;5.88;;;;;;;18.92;81.99;100186.31;5048300;28;20488;-34
2023/11/14 03:43:57;;;;;;;22.20;6.05;;;;;;;18.92;81.93;100180.03;5050487;28;20021;-34
2023/11/14 03:46:22;;;;;;;21.13;5.28;;;;;;;18.92;82.26;100191.00;5035025;28;20396;-34
2023/11/14 03:48:47;;;;;;;27.27;5.90;;;;;;;18.91;81.99;100192.91;5053115;28;20091;-33
2023/11/14 03:51:13;;;;;;;21.65;5.60;;;;;;;18.91;82.30;100197.59;5046231;28;20029;-32
2023/11/14 03:53:39;;;;;;;23.60;5.75;;;;;;;18.91;82.18;100211.34;5040123;28;20072;-33
2023/11/14 03:56:04;;;;;;;26.25;5.95;;;;;;;18.91;82.06;100197.59;5044771;28;20030;-33
2023/11/14 03:58:31;;;;;;;26.13;6.40;;;;;;;18.90;81.90;100194.00;5048340;28;20048;-34
2023/11/14 04:00:57;;;;;;;21.85;6.03;;;;;;;18.90;81.99;100202.22;5058583;28;20115;-34
2023/11/14 04:03:22;;;;;;;25.85;5.80;;;;;;;18.89;82.03;100186.06;5035685;28;20460;-34
2023/11/14 04:05:47;;;;;;;26.35;6.28;;;;;;;18.88;82.00;100188.00;5030710;28;20070;-35
2023/11/14 04:08:13;;;;;;;22.45;5.75;;;;;;;18.88;82.17;100200.91;5055252;28;20107;-33
2023/11/14 04:10:38;;;;;;;24.27;5.97;;;;;;;18.87;82.32;100193.78;5060086;28;20020;-35
2023/11/14 04:13:03;;;;;;;28.90;6.03;;;;;;;18.87;82.47;100199.25;5055430;28;20469;-34
2023/11/14 04:15:31;;;;;;;19.48;5.82;;;;;;;18.87;82.45;100202.00;5055612;28;20029;-34
2023/11/14 04:17:56;;;;;;;24.98;6.40;;;;;;;18.86;82.39;100208.59;5049314;28;20063;-33
2023/11/14 04:20:22;;;;;;;29.55;5.97;;;;;;;18.85;82.31;100193.28;5051014;28;20053;-32
2023/11/14 04:22:47;;;;;;;25.35;5.70;;;;;;;18.86;82.59;100205.88;5048820;28;20405;-33
2023/11/14 04:25:12;;;;;;;24.08;5.68;;;;;;;18.84;82.43;100197.13;5056385;28;20014;-33
2023/11/14 04:27:38;;;;;;;22.00;5.97;;;;;;;18.83;82.45;100201.78;5052705;28;20084;-34
2023/11/14 04:30:03;;;;;;;29.05;5.80;;;;;;;18.81;82.53;100204.03;5045786;28;20040;-34
2023/11/14 04:32:29;;;;;;;23.08;6.25;;;;;;;18.81;82.58;100198.53;5040801;28;20734;-32
2023/11/14 04:34:54;;;;;;;26.08;6.72;;;;;;;18.81;82.81;100198.53;5047842;28;20056;-33
2023/11/14 04:37:19;;;;;;;23.20;5.10;;;;;;;18.81;82.90;100193.06;5048984;28;20037;-32
2023/11/14 04:39:45;;;;;;;23.90;5.47;;;;;;;18.80;82.92;100196.06;5032792;28;20082;-32
2023/11/14 04:42:11;;;;;;;25.33;5.78;;;;;;;18.80;82.92;100196.06;5038251;28;20036;-33
2023/11/14 04:44:36;;;;;;;23.88;5.53;;;;;;;18.78;82.98;100201.88;5037052;28;20029;-33
2023/11/14 04:47:02;;;;;;;25.83;5.85;;;;;;;18.80;82.92;100207.88;5042766;28;20055;-34
2023/11/14 04:49:27;;;;;;;22.42;5.55;;;;;;;18.81;83.04;100190.31;5039535;28;20047;-33
2023/11/14 04:51:52;;;;;;;25.08;6.38;;;;;;;18.82;82.85;100202.94;5041723;28;20542;-32
2023/11/14 04:54:18;;;;;;;24.27;6.35;;;;;;;18.82;83.23;100204.84;5040948;28;20056;-35
2023/11/14 04:56:43;;;;;;;24.50;6.10;;;;;;;18.82;82.96;100210.31;5039763;28;20064;-33
2023/11/14 04:59:09;;;;;;;23.50;6.68;;;;;;;18.81;83.08;100211.44;5044318;28;20477;-32
2023/11/14 05:01:34;;;;;;;23.75;6.07;;;;;;;18.81;83.01;100205.94;5036212;28;20048;-33
2023/11/14 05:04:00;;;;;;;22.88;5.93;;;;;;;18.80;82.88;100226.28;5040501;28;20031;-33
2023/11/14 05:06:25;;;;;;;24.92;5.50;;;;;;;18.79;83.24;100230.16;5046329;28;20066;-34
2023/11/14 05:08:50;;;;;;;22.35;5.55;;;;;;;18.78;83.07;100226.56;5045740;28;20020;-34
2023/11/14 05:11:16;;;;;;;24.45;6.15;;;;;;;18.78;83.07;100223.84;5048294;28;20099;-34
2023/11/14 05:13:42;;;;;;;24.10;5.65;;;;;;;18.78;83.02;100215.59;5037606;28;20354;-34
2023/11/14 05:16:10;;;;;;;23.45;6.30;;;;;;;18.79;83.01;100217.22;5037160;28;20521;-32
2023/11/14 05:18:35;;;;;;;20.35;5.38;;;;;;;18.78;83.15;100215.59;5037962;28;20390;-32
2023/11/14 05:21:01;;;;;;;22.73;6.18;;;;;;;18.76;83.56;100215.91;5038005;28;20028;-33
2023/11/14 05:23:26;;;;;;;25.67;5.65;;;;;;;18.77;83.70;100214.78;5048613;28;20112;-33
2023/11/14 05:25:51;;;;;;;20.98;5.97;;;;;;;18.77;83.33;100213.97;5063162;28;20028;-38
2023/11/14 05:28:17;;;;;;;21.10;5.55;;;;;;;18.77;83.36;100219.44;5052977;28;20024;-34
2023/11/14 05:30:42;;;;;;;24.00;5.47;;;;;;;18.77;83.57;100200.22;5080196;28;20039;-34
2023/11/14 05:33:08;;;;;;;23.90;5.93;;;;;;;18.78;83.20;100223.84;5039434;28;20029;-34
2023/11/14 05:35:33;;;;;;;22.52;5.50;;;;;;;18.76;83.50;100221.38;5054219;28;20033;-35
2023/11/14 05:37:58;;;;;;;25.45;6.22;;;;;;;18.78;83.10;100226.56;5040182;28;20493;-34
2023/11/14 05:40:24;;;;;;;21.73;5.55;;;;;;;18.77;83.42;100235.91;5048358;28;20033;-34
2023/11/14 05:42:50;;;;;;;25.45;5.88;;;;;;;18.77;83.11;100241.41;5052587;28;20168;-34
2023/11/14 05:45:16;;;;;;;29.00;6.35;;;;;;;18.75;83.57;100221.69;5037091;28;20031;-34
2023/11/14 05:47:42;;;;;;;24.63;6.13;;;;;;;18.74;83.31;100229.09;5042432;28;20025;-34
2023/11/14 05:50:08;;;;;;;27.70;6.10;;;;;;;18.74;83.41;100236.53;5042063;28;20098;-33
2023/11/14 05:52:34;;;;;;;24.63;5.88;;;;;;;18.73;83.27;100235.69;5052835;28;20107;-35
2023/11/14 05:54:59;;;;;;;25.33;6.68;;;;;;;18.72;83.40;100242.31;5050046;28;20103;-35
2023/11/14 05:57:24;;;;;;;19.80;5.43;;;;;;;18.69;83.44;100242.09;5051022;28;20324;-34
2023/11/14 05:59:51;;;;;;;18.63;5.53;;;;;;;18.69;83.53;100248.38;5038326;28;20052;-34
2023/11/14 06:02:18;;;;;;;26.20;6.35;;;;;;;18.70;83.90;100265.66;5043873;28;20462;-34
2023/11/14 06:04:43;;;;;;;23.80;6.03;;;;;;;18.68;83.78;100270.66;5046219;28;20017;-36
2023/11/14 06:07:09;;;;;;;25.45;6.15;;;;;;;18.68;83.73;100271.47;5052523;28;20032;-34
2023/11/14 06:09:35;;;;;;;23.23;5.95;;;;;;;18.68;83.73;100276.16;5041540;28;20017;-33
2023/11/14 06:12:00;;;;;;;22.08;5.25;;;;;;;18.67;83.83;100280.81;5044588;28;20032;-33
2023/11/14 06:14:26;;;;;;;22.77;5.97;;;;;;;18.67;83.96;100282.75;5042725;28;20071;-34
2023/11/14 06:16:51;;;;;;;23.15;5.32;;;;;;;18.68;84.13;100282.44;5051520;28;20103;-34
2023/11/14 06:19:16;;;;;;;23.52;5.43;;;;;;;18.67;83.96;100275.31;5038471;28;20045;-35
2023/11/14 06:21:43;;;;;;;17.80;5.38;;;;;;;18.67;83.99;100275.31;5039938;28;20048;-34
2023/11/14 06:24:08;;;;;;;26.90;5.63;;;;;;;18.68;83.97;100270.66;5057859;28;20089;-34
2023/11/14 06:26:34;;;;;;;26.52;5.85;;;;;;;18.68;83.97;100267.91;5047177;28;20462;-34
2023/11/14 06:28:59;;;;;;;25.67;6.28;;;;;;;18.68;83.99;100257.72;5055088;28;20025;-33
2023/11/14 06:31:26;;;;;;;24.17;5.80;;;;;;;18.67;83.95;100258.03;5044911;28;20028;-35
2023/11/14 06:33:51;;;;;;;26.98;6.13;;;;;;;18.71;83.81;100253.56;5044710;28;20036;-34
2023/11/14 06:36:17;;;;;;;20.17;4.93;;;;;;;18.74;83.83;100262.03;5037469;28;20033;-35
2023/11/14 06:38:42;;;;;;;19.92;5.28;;;;;;;18.80;83.70;100265.53;5043273;28;20021;-34
2023/11/14 06:41:10;;;;;;;21.60;5.57;;;;;;;18.86;83.74;100260.78;5055683;28;20041;-33
2023/11/14 06:43:36;;;;;;;18.33;5.53;;;;;;;18.92;83.27;100252.22;5054203;28;20033;-33
2023/11/14 06:46:01;;;;;;;20.10;5.15;;;;;;;19.01;83.11;100243.31;5044876;28;20032;-32
2023/11/14 06:48:27;;;;;;;21.17;5.55;;;;;;;19.08;83.29;100261.03;5043392;28;21037;-39
2023/11/14 06:50:52;;;;;;;18.60;4.47;;;;;;;19.21;82.95;100258.66;5049382;28;20469;-34
2023/11/14 06:53:19;;;;;;;16.58;4.97;;;;;;;19.32;82.58;100279.34;5055659;28;20036;-34
2023/11/14 06:55:44;;;;;;;17.77;4.80;;;;;;;19.44;82.23;100276.13;5045246;28;20029;-34
2023/11/14 06:58:10;;;;;;;17.98;5.05;;;;;;;19.57;82.07;100291.06;5052665;28;20067;-38
2023/11/14 07:00:36;;;;;;;20.75;5.43;;;;;;;19.69;81.88;100287.81;5048256;28;20043;-36
2023/11/14 07:03:01;;;;;;;17.27;5.15;;;;;;;19.81;81.27;100277.13;5043268;28;20025;-35
2023/11/14 07:05:27;;;;;;;14.55;5.07;;;;;;;19.95;81.29;100292.88;5042379;28;20379;-34
2023/11/14 07:07:54;;;;;;;18.70;5.47;;;;;;;20.08;81.02;100294.03;5046711;28;20063;-34
2023/11/14 07:10:20;;;;;;;15.57;4.57;;;;;;;20.17;80.71;100290.28;5042778;28;20092;-33
2023/11/14 07:12:45;;;;;;;21.63;5.68;;;;;;;20.28;80.14;100296.41;5041456;28;20474;-34
2023/11/14 07:15:11;;;;;;;19.58;5.38;;;;;;;20.34;80.05;100292.41;5044376;28;20042;-36
2023/11/14 07:17:37;;;;;;;17.67;5.47;;;;;;;20.40;79.89;100290.38;5047330;28;20021;-35
2023/11/14 07:20:10;;;;;;;21.42;5.65;;;;;;;20.41;79.55;100296.69;5054100;28;20696;-35
2023/11/14 07:22:38;;;;;;;18.98;5.45;;;;;;;20.43;79.51;100294.44;5044526;28;20384;-34
2023/11/14 07:25:05;;;;;;;14.52;4.88;;;;;;;20.41;79.39;100305.75;5050157;28;20439;-34
2023/11/14 07:27:30;;;;;;;19.67;5.25;;;;;;;20.41;79.56;100296.69;5047938;28;20202;-34
2023/11/14 07:29:56;;;;;;;19.80;5.60;;;;;;;20.36;79.40;100300.38;5042215;28;20084;-35
2023/11/14 07:32:21;;;;;;;19.27;5.40;;;;;;;20.33;79.62;100290.78;5046402;28;20168;-34
2023/11/14 07:34:46;;;;;;;16.27;5.25;;;;;;;20.31;79.33;100279.25;5047537;28;20020;-35
2023/11/14 07:37:12;;;;;;;18.20;5.43;;;;;;;20.31;79.65;100282.00;5031111;28;20273;-36
2023/11/14 07:39:38;;;;;;;17.02;4.85;;;;;;;20.31;79.34;100289.47;5040624;28;20021;-33
2023/11/14 07:42:04;;;;;;;19.88;5.60;;;;;;;20.30;79.41;100283.13;5038963;28;20030;-32
2023/11/14 07:44:29;;;;;;;20.52;5.60;;;;;;;20.30;79.44;100293.34;5050105;28;20053;-32
2023/11/14 07:46:55;;;;;;;21.42;5.47;;;;;;;20.28;79.68;100288.13;5050737;28;20118;-36
2023/11/14 07:49:21;;;;;;;19.10;5.13;;;;;;;20.27;79.50;100299.44;5044989;28;20036;-32
2023/11/14 07:51:46;;;;;;;19.65;4.95;;;;;;;20.24;79.72;100297.31;5048444;28;20059;-32
2023/11/14 07:54:12;;;;;;;18.38;5.15;;;;;;;20.21;79.82;100290.47;5046502;28;20407;-32
2023/11/14 07:56:40;;;;;;;20.42;5.03;;;;;;;20.17;79.66;100301.28;5043094;28;20020;-32
2023/11/14 07:59:05;;;;;;;22.33;6.07;;;;;;;20.13;79.91;100288.44;5047756;28;20032;-31
2023/11/14 08:01:31;;;;;;;22.90;5.43;;;;;;;20.08;79.88;100294.03;5049140;28;20029;-32
2023/11/14 08:03:56;;;;;;;25.15;5.60;;;;;;;20.01;80.33;100298.00;5048033;28;20028;-32
2023/11/14 08:06:24;;;;;;;16.85;5.53;;;;;;;19.97;80.23;100298.91;5046495;28;20509;-32
2023/11/14 08:08:49;;;;;;;22.45;5.28;;;;;;;19.95;80.11;100290.13;5043251;28;20075;-32
2023/11/14 08:11:14;;;;;;;23.20;6.32;;;;;;;19.92;80.69;100288.00;5042678;28;20416;-33
2023/11/14 08:13:40;;;;;;;20.48;5.20;;;;;;;19.86;80.37;100277.09;5063560;28;20032;-35
2023/11/14 08:16:06;;;;;;;20.50;5.25;;;;;;;19.84;80.89;100275.75;5045609;28;20059;-33
2023/11/14 08:18:31;;;;;;;18.77;5.25;;;;;;;19.83;80.62;100282.34;5051912;28;20036;-34
2023/11/14 08:20:56;;;;;;;17.55;5.18;;;;;;;19.80;80.90;100288.44;5047073;28;20467;-33
2023/11/14 08:23:22;;;;;;;21.45;4.68;;;;;;;19.79;80.67;100293.16;5048970;28;20124;-34
2023/11/14 08:25:47;;;;;;;20.75;5.32;;;;;;;19.77;81.11;100298.13;5063449;28;20102;-32
2023/11/14 08:28:13;;;;;;;20.38;5.75;;;;;;;19.77;80.93;100291.81;5050861;28;20443;-31
2023/11/14 08:30:40;;;;;;;19.95;5.45;;;;;;;19.73;80.64;100289.66;5044704;28;20029;-35
2023/11/14 08:33:07;;;;;;;23.23;5.65;;;;;;;19.71;81.02;100283.63;5046294;28;20508;-33
2023/11/14 08:35:33;;;;;;;21.35;6.10;;;;;;;19.70;81.18;100297.69;5037040;28;20026;-34
2023/11/14 08:37:59;;;;;;;18.70;5.00;;;;;;;19.67;81.21;100287.31;5041182;28;20394;-33
2023/11/14 08:40:25;;;;;;;22.85;5.88;;;;;;;19.66;81.24;100288.44;5057270;28;20465;-32
2023/11/14 08:42:51;;;;;;;15.98;4.47;;;;;;;19.65;81.24;100287.59;5052300;28;20036;-34
2023/11/14 08:45:17;;;;;;;17.02;5.30;;;;;;;19.64;81.42;100290.66;5043437;28;20032;-33
2023/11/14 08:47:43;;;;;;;22.42;5.70;;;;;;;19.63;81.14;100295.34;5033753;28;20482;-33
2023/11/14 08:50:09;;;;;;;17.90;4.78;;;;;;;19.62;81.48;100290.13;5040019;28;20094;-33
2023/11/14 08:52:34;;;;;;;21.58;5.43;;;;;;;19.60;81.28;100284.94;5064528;28;20748;-32
2023/11/14 08:55:01;;;;;;;20.02;5.63;;;;;;;19.61;81.28;100291.25;5058999;28;20021;-34
2023/11/14 08:57:28;;;;;;;22.50;5.50;;;;;;;19.59;81.07;100283.31;5057358;28;20135;-33
2023/11/14 08:59:55;;;;;;;27.33;5.43;;;;;;;19.60;81.50;100287.69;5049020;28;20075;-34
2023/11/14 09:02:20;;;;;;;20.23;5.03;;;;;;;19.60;81.26;100295.94;5050405;28;20026;-33
2023/11/14 09:04:46;;;;;;;23.48;5.60;;;;;;;19.60;81.50;100292.38;5056697;28;20458;-33
2023/11/14 09:07:11;;;;;;;20.65;5.38;;;;;;;19.59;81.31;100297.03;5039207;28;20051;-33
2023/11/14 09:09:36;;;;;;;20.55;5.03;;;;;;;19.59;81.33;100301.75;5029280;28;20017;-33
2023/11/14 09:12:02;;;;;;;23.00;5.63;;;;;;;19.58;81.38;100294.59;5036153;28;20033;-33
2023/11/14 09:14:27;;;;;;;20.02;6.05;;;;;;;19.58;81.35;100295.41;5042911;28;20025;-33
2023/11/14 09:16:54;;;;;;;22.00;5.60;;;;;;;19.56;81.44;100290.22;5039625;28;20116;-34
2023/11/14 09:19:19;;;;;;;21.48;5.00;;;;;;;19.59;81.67;100304.50;5046103;28;20029;-33
2023/11/14 09:21:46;;;;;;;22.63;5.47;;;;;;;19.58;81.29;100300.91;5043634;28;20029;-32
2023/11/14 09:24:12;;;;;;;24.65;6.13;;;;;;;19.57;81.63;100304.81;5040205;28;20028;-35
2023/11/14 09:26:38;;;;;;;20.90;5.35;;;;;;;19.58;81.56;100305.59;5045359;28;20029;-33
2023/11/14 09:29:03;;;;;;;21.20;4.82;;;;;;;19.59;81.46;100307.25;5050404;28;20028;-33
2023/11/14 09:31:28;;;;;;;22.85;5.43;;;;;;;19.59;81.73;100313.53;5055369;28;20028;-34
2023/11/14 09:33:54;;;;;;;20.00;5.20;;;;;;;19.58;81.60;100300.91;5037029;28;20025;-33
2023/11/14 09:36:19;;;;;;;24.67;5.53;;;;;;;19.61;82.13;100305.81;5030246;28;20507;-33
2023/11/14 09:38:44;;;;;;;23.17;5.57;;;;;;;19.61;82.04;100311.31;5042738;28;20152;-33
2023/11/14 09:41:11;;;;;;;20.00;5.65;;;;;;;19.62;82.16;100312.13;5057166;28;20467;-33
2023/11/14 09:43:37;;;;;;;21.13;5.80;;;;;;;19.62;82.16;100307.47;5062041;28;20029;-33
2023/11/14 09:46:04;;;;;;;25.60;6.13;;;;;;;19.62;82.27;100301.97;5052107;28;20035;-33
2023/11/14 09:48:30;;;;;;;24.85;5.70;;;;;;;19.62;81.97;100301.97;5035012;28;20029;-34
2023/11/14 09:50:55;;;;;;;32.22;5.95;;;;;;;19.63;82.13;100311.84;5054936;28;20516;-33
2023/11/14 09:53:24;;;;;;;22.25;5.68;;;;;;;19.63;82.03;100316.50;5055393;28;20493;-34
2023/11/14 09:55:57;;;;;;;30.83;5.95;;;;;;;19.63;82.40;100308.25;5064398;28;20532;-33
2023/11/14 09:58:22;;;;;;;180.27;11.30;;;;;;;19.63;82.09;100302.75;5053101;28;20057;-33
2023/11/14 10:00:48;;;;;;;43.50;7.03;;;;;;;19.65;82.51;100306.03;5036071;28;20044;-31
2023/11/14 10:03:14;;;;;;;30.25;6.88;;;;;;;19.70;83.18;100297.69;5034426;28;20396;-33
2023/11/14 10:05:40;;;;;;;26.02;6.80;;;;;;;19.75;83.66;100299.53;5029871;28;20029;-33
2023/11/14 10:08:06;;;;;;;28.20;5.90;;;;;;;19.79;83.56;100306.91;5041672;28;20020;-31
2023/11/14 10:10:31;;;;;;;30.02;5.93;;;;;;;19.83;83.67;100313.44;5032668;28;20493;-32
2023/11/14 10:12:57;;;;;;;27.95;6.40;;;;;;;19.86;83.30;100306.53;5037301;28;20028;-35
2023/11/14 10:15:30;;;;;;;29.65;6.80;;;;;;;19.92;83.55;100312.75;5033987;28;20037;-31
2023/11/14 10:17:57;;;;;;;33.08;7.10;;;;;;;19.94;83.35;100305.84;5034828;28;20364;-33
2023/11/14 10:20:22;;;;;;;35.60;6.97;;;;;;;19.96;83.89;100303.59;5032605;28;20029;-33
2023/11/14 10:22:52;;;;;;;35.88;7.05;;;;;;;20.00;83.57;100304.63;5039614;28;20039;-33
2023/11/14 10:25:25;;;;;;;40.13;6.90;;;;;;;20.04;83.60;100315.84;5044734;28;20035;-32
2023/11/14 10:27:59;;;;;;;34.88;6.82;;;;;;;20.07;83.29;100303.41;5040777;28;20025;-34
2023/11/14 10:30:26;;;;;;;28.88;5.97;;;;;;;20.10;83.61;100297.28;5042952;28;20529;-34
2023/11/14 10:32:54;;;;;;;25.20;5.75;;;;;;;20.13;83.76;100296.69;5047369;28;20099;-35
2023/11/14 10:35:21;;;;;;;31.98;6.47;;;;;;;20.13;83.58;100285.69;5054041;28;20028;-34
2023/11/14 10:37:46;;;;;;;29.98;6.45;;;;;;;20.16;83.35;100293.34;5039269;28;20520;-35
2023/11/14 10:40:12;;;;;;;24.23;5.30;;;;;;;20.18;83.29;100293.81;5028596;28;20028;-33
2023/11/14 10:42:37;;;;;;;23.75;5.75;;;;;;;20.20;82.97;100302.59;5039529;28;20021;-33
2023/11/14 10:45:07;;;;;;;24.55;6.70;;;;;;;20.22;82.68;100297.63;5037694;28;20116;-32
2023/11/14 10:47:40;;;;;;;28.70;6.20;;;;;;;20.25;82.91;100294.25;5045080;28;20103;-33
2023/11/14 10:50:22;;;;;;;29.40;6.57;;;;;;;20.25;82.64;100288.75;5044103;28;20052;-34
2023/11/14 10:52:49;;;;;;;26.92;5.82;;;;;;;20.28;82.35;100284.56;5040316;28;20036;-32
2023/11/14 10:55:15;;;;;;;24.80;6.25;;;;;;;20.29;82.45;100277.94;5046250;28;20044;-33
2023/11/14 10:57:41;;;;;;;26.58;6.38;;;;;;;20.29;82.52;100276.00;5043781;28;20122;-34
2023/11/14 11:00:10;;;;;;;28.92;6.50;;;;;;;20.31;82.29;100272.94;5042513;28;20537;-33
2023/11/14 11:02:39;;;;;;;28.98;7.05;;;;;;;20.32;82.58;100266.34;5038468;28;20470;-33
2023/11/14 11:05:05;;;;;;;24.60;6.07;;;;;;;20.33;82.30;100262.44;5042779;28;20525;-34
2023/11/14 11:07:30;;;;;;;23.02;5.70;;;;;;;20.34;82.66;100275.06;5041538;28;20025;-33
2023/11/14 11:09:56;;;;;;;28.27;6.95;;;;;;;20.34;82.27;100262.16;5036101;28;20051;-34